createdAt,value
2022-11-07T00:00:35.897Z,12.13
2022-11-07T00:03:39.113Z,12.03
2022-11-07T00:06:42.453Z,12.47
2022-11-07T00:09:45.702Z,12.55
2022-11-07T00:12:48.887Z,13.57
2022-11-07T00:15:51.967Z,12.55
2022-11-07T00:18:55.523Z,12.10
2022-11-07T00:21:58.673Z,12.53
2022-11-07T00:25:01.854Z,13.13
2022-11-07T00:28:05.254Z,13.13
2022-11-07T00:31:10.529Z,12.68
2022-11-07T00:34:13.959Z,12.57
2022-11-07T00:37:17.121Z,13.48
2022-11-07T00:40:20.351Z,12.25
2022-11-07T00:43:24.074Z,12.93
2022-11-07T00:46:27.311Z,13.05
2022-11-07T00:49:30.618Z,13.67
2022-11-07T00:52:33.868Z,13.40
2022-11-07T00:55:37.079Z,13.02
2022-11-07T00:58:41.420Z,13.10
2022-11-07T01:01:44.722Z,13.75
2022-11-07T01:05:06.745Z,13.30
2022-11-07T01:08:10.229Z,13.50
2022-11-07T01:11:13.806Z,13.73
2022-11-07T01:14:23.149Z,13.27
2022-11-07T01:17:26.279Z,13.77
2022-11-07T01:20:29.512Z,13.50
2022-11-07T01:23:32.823Z,13.40
2022-11-07T01:26:37.837Z,13.43
2022-11-07T01:29:44.053Z,14.02
2022-11-07T01:32:47.207Z,13.73
2022-11-07T01:35:50.403Z,13.67
2022-11-07T01:38:54.100Z,13.70
2022-11-07T01:41:57.483Z,14.15
2022-11-07T01:45:01.304Z,13.50
2022-11-07T01:48:04.763Z,13.15
2022-11-07T01:51:08.671Z,13.80
2022-11-07T01:54:13.434Z,13.23
2022-11-07T01:57:22.325Z,13.93
2022-11-07T02:00:26.602Z,14.00
2022-11-07T02:03:29.914Z,13.38
2022-11-07T02:06:58.351Z,13.90
2022-11-07T02:10:03.695Z,14.65
2022-11-07T02:13:08.387Z,13.60
2022-11-07T02:16:11.588Z,13.27
2022-11-07T02:19:29.765Z,13.32
2022-11-07T02:22:42.248Z,14.10
2022-11-07T02:25:45.657Z,14.03
2022-11-07T02:28:49.684Z,14.07
2022-11-07T02:32:07.823Z,13.43
2022-11-07T02:35:32.875Z,14.70
2022-11-07T02:38:37.644Z,14.10
2022-11-07T02:41:41.006Z,14.00
2022-11-07T02:44:44.620Z,14.02
2022-11-07T02:47:50.560Z,13.50
2022-11-07T02:50:53.683Z,14.23
2022-11-07T02:53:56.905Z,14.50
2022-11-07T02:57:00.022Z,14.18
2022-11-07T03:00:04.071Z,14.25
2022-11-07T03:03:07.328Z,14.27
2022-11-07T03:06:13.258Z,14.15
2022-11-07T03:09:16.685Z,14.67
2022-11-07T03:12:19.950Z,14.70
2022-11-07T03:15:23.066Z,14.13
2022-11-07T03:18:26.852Z,14.70
2022-11-07T03:21:29.966Z,13.73
2022-11-07T03:24:33.130Z,13.60
2022-11-07T03:27:36.318Z,13.93
2022-11-07T03:30:39.494Z,14.27
2022-11-07T03:33:42.743Z,13.93
2022-11-07T03:36:45.984Z,14.07
2022-11-07T03:39:49.351Z,14.33
2022-11-07T03:42:52.772Z,14.38
2022-11-07T03:45:55.884Z,15.07
2022-11-07T03:48:59.057Z,14.40
2022-11-07T03:52:02.220Z,13.52
2022-11-07T03:55:05.783Z,15.00
2022-11-07T03:58:09.003Z,14.27
2022-11-07T04:01:13.255Z,14.88
2022-11-07T04:04:16.534Z,13.20
2022-11-07T04:07:19.619Z,14.13
2022-11-07T04:10:22.861Z,14.23
2022-11-07T04:13:49.271Z,13.80
2022-11-07T04:17:11.138Z,14.43
2022-11-07T04:20:14.520Z,13.60
2022-11-07T04:23:17.939Z,13.15
2022-11-07T04:26:39.946Z,12.90
2022-11-07T04:29:43.102Z,13.03
2022-11-07T04:32:50.099Z,13.10
2022-11-07T04:35:53.243Z,13.98
2022-11-07T04:38:56.366Z,14.07
2022-11-07T04:42:01.996Z,14.23
2022-11-07T04:45:08.474Z,14.73
2022-11-07T04:48:12.902Z,15.38
2022-11-07T04:51:20.331Z,14.98
2022-11-07T04:54:23.515Z,14.75
2022-11-07T04:57:26.702Z,14.27
2022-11-07T05:00:30.195Z,16.37
2022-11-07T05:03:36.316Z,15.13
2022-11-07T05:06:43.292Z,16.42
2022-11-07T05:09:46.498Z,15.80
2022-11-07T05:12:49.930Z,16.63
2022-11-07T05:15:53.150Z,17.07
2022-11-07T05:18:56.351Z,17.25
2022-11-07T05:22:18.069Z,17.02
2022-11-07T05:25:21.271Z,17.05
2022-11-07T05:28:38.286Z,17.30
2022-11-07T05:31:42.588Z,18.53
2022-11-07T05:34:45.719Z,17.67
2022-11-07T05:37:49.014Z,17.38
2022-11-07T05:40:52.162Z,18.02
2022-11-07T05:43:55.265Z,18.00
2022-11-07T05:46:58.786Z,17.98
2022-11-07T05:50:02.164Z,16.60
2022-11-07T05:53:06.379Z,17.50
2022-11-07T05:56:09.683Z,17.38
2022-11-07T05:59:13.858Z,13.30
2022-11-07T06:02:17.247Z,14.10
2022-11-07T06:05:24.162Z,16.05
2022-11-07T06:08:27.784Z,13.32
2022-11-07T06:11:32.684Z,15.70
2022-11-07T06:14:35.940Z,12.30
2022-11-07T06:17:39.290Z,13.80
2022-11-07T06:20:42.698Z,14.07
2022-11-07T06:23:45.830Z,13.10
2022-11-07T06:26:50.884Z,14.15
2022-11-07T06:29:53.993Z,15.33
2022-11-07T06:33:01.561Z,15.50
2022-11-07T06:36:10.585Z,17.17
2022-11-07T06:39:14.023Z,16.35
2022-11-07T06:42:20.051Z,16.27
2022-11-07T06:45:23.443Z,16.80
2022-11-07T06:48:26.735Z,18.13
2022-11-07T06:51:29.998Z,17.95
2022-11-07T06:54:33.247Z,18.10
2022-11-07T06:57:36.754Z,18.95
2022-11-07T07:00:41.822Z,18.30
2022-11-07T07:03:45.194Z,18.05
2022-11-07T07:06:48.520Z,17.42
2022-11-07T07:09:52.011Z,17.85
2022-11-07T07:12:57.218Z,17.80
2022-11-07T07:16:00.816Z,18.10
2022-11-07T07:19:05.114Z,17.25
2022-11-07T07:22:13.976Z,17.30
2022-11-07T07:25:25.183Z,16.20
2022-11-07T07:28:31.133Z,18.27
2022-11-07T07:31:34.890Z,16.77
2022-11-07T07:34:38.097Z,17.23
2022-11-07T07:37:52.822Z,17.10
2022-11-07T07:40:58.821Z,17.55
2022-11-07T07:44:05.293Z,18.45
2022-11-07T07:47:11.513Z,16.97
2022-11-07T07:50:16.653Z,17.40
2022-11-07T07:53:30.085Z,17.73
2022-11-07T07:56:36.162Z,16.70
2022-11-07T07:59:39.429Z,16.52
2022-11-07T08:02:46.114Z,17.10
2022-11-07T08:05:57.743Z,16.80
2022-11-07T08:09:01.597Z,16.75
2022-11-07T08:12:06.725Z,12.80
2022-11-07T08:15:11.739Z,15.15
2022-11-07T08:18:14.973Z,15.37
2022-11-07T08:21:18.349Z,15.03
2022-11-07T08:24:25.174Z,17.83
2022-11-07T08:27:31.163Z,16.33
2022-11-07T08:30:35.321Z,16.10
2022-11-07T08:33:51.168Z,16.40
2022-11-07T08:36:54.567Z,17.30
2022-11-07T08:39:57.785Z,17.25
2022-11-07T08:43:04.224Z,16.55
2022-11-07T08:46:07.517Z,17.77
2022-11-07T08:49:11.123Z,19.97
2022-11-07T08:52:16.528Z,17.27
2022-11-07T08:55:19.826Z,17.88
2022-11-07T08:58:28.768Z,15.07
2022-11-07T09:01:33.319Z,14.73
2022-11-07T09:04:36.697Z,15.30
2022-11-07T09:07:40.512Z,15.50
2022-11-07T09:10:44.134Z,15.05
2022-11-07T09:14:06.231Z,13.00
2022-11-07T09:17:10.042Z,15.32
2022-11-07T09:20:14.468Z,14.40
2022-11-07T09:23:18.385Z,14.17
2022-11-07T09:26:21.931Z,14.40
2022-11-07T09:29:25.542Z,13.40
2022-11-07T09:32:44.476Z,14.98
2022-11-07T09:35:48.738Z,14.40
2022-11-07T09:38:53.606Z,14.10
2022-11-07T09:42:06.131Z,13.35
2022-11-07T09:45:13.385Z,14.30
2022-11-07T09:48:25.422Z,13.98
2022-11-07T09:51:36.583Z,13.90
2022-11-07T09:54:50.649Z,14.00
2022-11-07T09:58:00.083Z,13.18
2022-11-07T10:01:14.408Z,13.98
2022-11-07T10:04:27.668Z,12.77
2022-11-07T10:07:58.415Z,13.97
2022-11-07T10:11:07.225Z,12.90
2022-11-07T10:14:39.515Z,13.80
2022-11-07T10:17:58.087Z,14.10
2022-11-07T10:21:38.531Z,14.18
2022-11-07T10:25:16.790Z,17.73
2022-11-07T10:28:21.131Z,14.40
2022-11-07T10:31:28.300Z,13.77
2022-11-07T10:34:54.164Z,14.70
2022-11-07T10:38:04.822Z,14.30
2022-11-07T10:41:33.526Z,14.70
2022-11-07T10:44:39.388Z,13.77
2022-11-07T10:47:43.748Z,13.10
2022-11-07T10:50:54.564Z,14.20
2022-11-07T10:53:59.396Z,13.70
2022-11-07T10:57:11.879Z,14.13
2022-11-07T11:00:36.643Z,14.60
2022-11-07T11:03:44.946Z,14.80
2022-11-07T11:07:04.075Z,14.02
2022-11-07T11:10:22.543Z,14.20
2022-11-07T11:13:28.182Z,13.63
2022-11-07T11:16:38.701Z,14.27
2022-11-07T11:19:53.566Z,14.15
2022-11-07T11:22:57.104Z,14.38
2022-11-07T11:26:13.246Z,14.50
2022-11-07T11:29:36.772Z,14.37
2022-11-07T11:33:06.819Z,13.73
2022-11-07T11:36:21.932Z,14.10
2022-11-07T11:39:53.030Z,15.75
2022-11-07T11:43:17.856Z,13.57
2022-11-07T11:46:31.756Z,11.93
2022-11-07T11:49:59.697Z,12.33
2022-11-07T11:53:08.012Z,14.68
2022-11-07T11:56:14.278Z,13.60
2022-11-07T11:59:46.647Z,13.18
2022-11-07T12:03:09.628Z,13.47
2022-11-07T12:06:16.833Z,12.53
2022-11-07T12:10:03.426Z,14.82
2022-11-07T12:13:28.759Z,13.45
2022-11-07T12:16:51.289Z,12.27
2022-11-07T12:20:18.748Z,12.77
2022-11-07T12:23:37.625Z,13.17
2022-11-07T12:26:40.988Z,13.98
2022-11-07T12:30:10.214Z,13.13
2022-11-07T12:33:28.091Z,12.77
2022-11-07T12:36:53.476Z,14.67
2022-11-07T12:40:10.824Z,14.50
2022-11-07T12:43:30.286Z,14.23
2022-11-07T12:46:48.580Z,16.13
2022-11-07T12:50:06.824Z,15.38
2022-11-07T12:53:32.010Z,15.27
2022-11-07T12:56:39.342Z,15.53
2022-11-07T12:59:54.750Z,14.38
2022-11-07T13:03:21.523Z,15.48
2022-11-07T13:06:58.590Z,14.23
2022-11-07T13:10:15.952Z,13.40
2022-11-07T13:13:19.534Z,13.90
2022-11-07T13:16:30.554Z,15.43
2022-11-07T13:19:41.442Z,15.27
2022-11-07T13:22:44.874Z,14.90
2022-11-07T13:26:14.837Z,15.43
2022-11-07T13:29:37.921Z,14.93
2022-11-07T13:32:45.398Z,16.42
2022-11-07T13:35:55.058Z,16.05
2022-11-07T13:39:00.486Z,16.80
2022-11-07T13:42:05.619Z,16.13
2022-11-07T13:45:41.551Z,15.77
2022-11-07T13:48:57.823Z,16.23
2022-11-07T13:52:10.842Z,17.02
2022-11-07T13:55:22.210Z,15.60
2022-11-07T13:58:33.511Z,16.03
2022-11-07T14:01:44.574Z,15.97
2022-11-07T14:05:15.280Z,15.88
2022-11-07T14:08:32.507Z,16.77
2022-11-07T14:11:37.045Z,18.75
2022-11-07T14:14:40.815Z,19.33
2022-11-07T14:17:45.347Z,19.47
2022-11-07T14:20:56.966Z,16.98
2022-11-07T14:24:00.853Z,16.83
2022-11-07T14:27:08.520Z,17.40
2022-11-07T14:30:17.447Z,18.00
2022-11-07T14:33:22.786Z,17.97
2022-11-07T14:36:26.903Z,17.77
2022-11-07T14:39:32.715Z,18.15
2022-11-07T14:42:35.990Z,18.45
2022-11-07T14:46:10.793Z,19.53
2022-11-07T14:49:03.772Z,20.67
2022-11-07T14:52:16.569Z,20.27
2022-11-07T14:55:32.056Z,19.80
2022-11-07T14:58:36.147Z,18.83
2022-11-07T15:01:53.706Z,20.10
2022-11-07T15:05:05.403Z,19.63
2022-11-07T15:08:33.818Z,19.75
2022-11-07T15:11:40.083Z,20.35
2022-11-07T15:14:43.355Z,19.92
2022-11-07T15:17:49.126Z,16.90
2022-11-07T15:20:59.440Z,18.50
2022-11-07T15:24:28.725Z,17.38
2022-11-07T15:27:40.208Z,15.80
2022-11-07T15:30:44.728Z,15.68
2022-11-07T15:33:49.268Z,16.10
2022-11-07T15:36:52.449Z,14.70
2022-11-07T15:39:55.783Z,15.05
2022-11-07T15:42:59.230Z,10.48
2022-11-07T15:46:21.051Z,14.65
2022-11-07T15:49:25.592Z,16.13
2022-11-07T15:52:28.755Z,16.50
2022-11-07T15:55:33.205Z,14.95
2022-11-07T15:58:38.611Z,15.00
2022-11-07T16:01:42.723Z,14.73
2022-11-07T16:04:48.654Z,14.87
2022-11-07T16:07:51.846Z,15.77
2022-11-07T16:10:57.869Z,14.70
2022-11-07T16:14:34.469Z,15.05
2022-11-07T16:17:37.048Z,17.10
2022-11-07T16:20:48.492Z,16.27
2022-11-07T16:23:52.610Z,17.63
2022-11-07T16:26:55.898Z,16.77
2022-11-07T16:29:59.159Z,17.20
2022-11-07T16:33:02.672Z,16.65
2022-11-07T16:36:24.438Z,17.00
2022-11-07T16:39:27.613Z,16.83
2022-11-07T16:42:31.190Z,17.85
2022-11-07T16:45:35.082Z,17.90
2022-11-07T16:48:39.016Z,18.55
2022-11-07T16:51:44.873Z,20.07
2022-11-07T16:54:48.273Z,19.73
2022-11-07T16:57:51.541Z,18.42
2022-11-07T17:00:58.129Z,15.95
2022-11-07T17:04:01.426Z,17.45
2022-11-07T17:07:05.226Z,16.90
2022-11-07T17:10:13.379Z,16.97
2022-11-07T17:13:16.679Z,17.80
2022-11-07T17:16:25.837Z,18.83
2022-11-07T17:19:29.615Z,18.02
2022-11-07T17:22:33.216Z,18.77
2022-11-07T17:25:38.572Z,21.37
2022-11-07T17:28:42.409Z,19.42
2022-11-07T17:31:50.778Z,19.38
2022-11-07T17:35:11.033Z,20.10
2022-11-07T17:38:17.831Z,20.17
2022-11-07T17:41:22.085Z,20.00
2022-11-07T17:44:27.221Z,19.27
2022-11-07T17:47:34.335Z,18.42
2022-11-07T17:50:38.279Z,20.00
2022-11-07T17:53:43.474Z,20.83
2022-11-07T17:56:46.912Z,20.27
2022-11-07T17:59:51.676Z,19.40
2022-11-07T18:02:55.008Z,20.25
2022-11-07T18:05:58.679Z,19.13
2022-11-07T18:09:02.484Z,18.30
2022-11-07T18:12:09.378Z,17.92
2022-11-07T18:15:13.233Z,18.90
2022-11-07T18:18:16.768Z,19.17
2022-11-07T18:21:20.248Z,20.30
2022-11-07T18:24:24.274Z,21.17
2022-11-07T18:27:27.676Z,21.20
2022-11-07T18:30:31.452Z,21.65
2022-11-07T18:33:35.651Z,21.65
2022-11-07T18:36:40.124Z,21.92
2022-11-07T18:39:43.926Z,21.80
2022-11-07T18:42:47.189Z,21.57
2022-11-07T18:45:50.707Z,23.05
2022-11-07T18:48:54.585Z,22.50
2022-11-07T18:51:57.986Z,22.75
2022-11-07T18:55:01.186Z,21.40
2022-11-07T18:58:04.698Z,23.43
2022-11-07T19:01:14.794Z,22.30
2022-11-07T19:04:18.438Z,23.58
2022-11-07T19:07:21.831Z,23.00
2022-11-07T19:10:25.447Z,21.50
2022-11-07T19:13:29.348Z,22.13
2022-11-07T19:16:32.919Z,22.23
2022-11-07T19:19:36.448Z,22.40
2022-11-07T19:22:39.890Z,21.40
2022-11-07T19:25:43.793Z,21.87
2022-11-07T19:28:47.444Z,21.40
2022-11-07T19:31:51.012Z,21.23
2022-11-07T19:34:54.142Z,22.25
2022-11-07T19:37:58.374Z,21.88
2022-11-07T19:41:08.536Z,20.63
2022-11-07T19:44:12.027Z,21.40
2022-11-07T19:47:15.784Z,20.70
2022-11-07T19:50:19.283Z,22.92
2022-11-07T19:53:22.571Z,22.58
2022-11-07T19:56:28.180Z,22.30
2022-11-07T19:59:31.751Z,22.77
2022-11-07T20:02:40.138Z,22.92
2022-11-07T20:05:48.969Z,23.83
2022-11-07T20:08:52.506Z,24.05
2022-11-07T20:11:56.075Z,24.43
2022-11-07T20:14:59.959Z,23.65
2022-11-07T20:18:03.436Z,24.75
2022-11-07T20:21:12.211Z,26.63
2022-11-07T20:24:15.631Z,24.60
2022-11-07T20:27:19.042Z,24.27
2022-11-07T20:30:22.964Z,25.00
2022-11-07T20:33:26.262Z,24.63
2022-11-07T20:36:31.213Z,25.48
2022-11-07T20:39:34.714Z,24.70
2022-11-07T20:42:38.191Z,23.93
2022-11-07T20:45:41.536Z,23.42
2022-11-07T20:48:45.144Z,23.88
2022-11-07T20:51:48.619Z,24.83
2022-11-07T20:54:52.081Z,24.27
2022-11-07T20:57:57.122Z,24.73
2022-11-07T21:01:00.949Z,24.92
2022-11-07T21:04:10.614Z,24.35
2022-11-07T21:07:18.006Z,24.42
2022-11-07T21:10:21.520Z,22.42
2022-11-07T21:13:24.713Z,23.60
2022-11-07T21:16:27.874Z,23.25
2022-11-07T21:19:31.013Z,23.40
2022-11-07T21:22:35.512Z,23.27
2022-11-07T21:25:43.463Z,22.52
2022-11-07T21:28:47.091Z,21.23
2022-11-07T21:31:50.204Z,21.50
2022-11-07T21:34:53.359Z,20.63
2022-11-07T21:37:56.481Z,21.25
2022-11-07T21:41:03.429Z,22.75
2022-11-07T21:44:06.775Z,21.43
2022-11-07T21:47:09.849Z,19.88
2022-11-07T21:50:38.444Z,19.55
2022-11-07T21:53:41.196Z,19.40
2022-11-07T21:56:44.340Z,19.15
2022-11-07T21:59:47.578Z,19.23
2022-11-07T22:02:50.703Z,19.05
2022-11-07T22:05:53.774Z,19.02
2022-11-07T22:08:56.915Z,18.15
2022-11-07T22:12:00.020Z,20.60
2022-11-07T22:15:03.309Z,18.63
2022-11-07T22:18:06.580Z,18.67
2022-11-07T22:21:12.687Z,17.73
2022-11-07T22:24:15.830Z,17.35
2022-11-07T22:27:27.487Z,17.48
2022-11-07T22:30:30.903Z,17.47
2022-11-07T22:33:34.545Z,16.83
2022-11-07T22:36:37.905Z,16.92
2022-11-07T22:39:41.135Z,17.88
2022-11-07T22:42:44.204Z,17.90
2022-11-07T22:45:47.410Z,18.07
2022-11-07T22:48:51.848Z,18.40
2022-11-07T22:51:55.027Z,17.70
2022-11-07T22:54:58.203Z,16.80
2022-11-07T22:58:01.402Z,18.27
2022-11-07T23:01:06.202Z,17.80
2022-11-07T23:04:15.048Z,17.35
2022-11-07T23:07:18.215Z,17.83
2022-11-07T23:10:22.098Z,17.63
2022-11-07T23:13:25.341Z,16.95
2022-11-07T23:16:40.447Z,18.13
2022-11-07T23:19:43.751Z,17.63
2022-11-07T23:22:46.951Z,17.20
2022-11-07T23:25:50.275Z,16.98
2022-11-07T23:28:53.646Z,17.40
2022-11-07T23:32:00.456Z,16.47
2022-11-07T23:35:03.714Z,16.80
2022-11-07T23:38:06.866Z,16.67
2022-11-07T23:41:12.360Z,16.58
2022-11-07T23:44:16.098Z,15.52
2022-11-07T23:47:37.858Z,15.47
2022-11-07T23:51:00.472Z,16.92
2022-11-07T23:54:22.641Z,15.10
2022-11-07T23:57:25.847Z,15.07
